الصفحة الرئيسية
METAR-TAF:

METAR-TAF

مطار :

Komatsu, اليابان

دائرة عرض: 36-23N, خط طول: 136-25E, ارتفاع: 6 متر

مراقبة الطقس الحالي

تاريخ ووقت الإصدار 1ساعة و 11 دقيقة قبل الساعة 03:00UTC
ريح 9 عقدة من الغرب
درجة الحرارة 26°درجة مئوية
الرطوبة 61%
ضغط 1009 hPa
الرؤية 10 كم أو أكثر
غيوم قليلة على ارتفاع 3000 قدم
غيوم مفككة على ارتفاع 23000 قدم

METAR: RJNK 170300Z 28009KT 9999 FEW030 BKN230 26/18 Q1009

زمن: 13:11 (04:11 UTC)

توقعات

تاريخ ووقت الإصدار 5ساعات و 6 دقيقة قبل الساعة 23:05UTC
التوقعات صالحة من17 الساعة 00 UTC إلى 18 الساعة 06 UTC
ريح 10 عقدة من الغرب
الرؤية 10 كم أو أكثر
غيوم قليلة على ارتفاع 3000 قدم
أصبح
من 17 الساعة 08 UTC إلى 17 الساعة 10 UTC
ريح 4 عقدة من الجنوب
أصبح
من 17 الساعة 21 UTC إلى 18 الساعة 00 UTC
ريح 12 عقدة من الشرق/الشمال الشرقي
أصبح
من 18 الساعة 03 UTC إلى 18 الساعة 06 UTC
ريح 16 عقدة من الشمال

TAF: RJNK 162305Z 1700/1806 28010KT 9999 FEW030 BECMG 1708/1710 18004KT BECMG 1721/1800 06012KT BECMG 1803/1806 36016KT

أرصاد الطقس والتوقعات من أكثر من 4000 مطار (تقارير الطقس للمطار METAR والتنبؤ بالطقس بالمطارTAF).

المحطات المتاحة هي النقط الصفراء والحمراء على الخريطة.

حرك المؤشر فوق النقطة لمعرفة اسم المحطة.

ثم انقر لمعرفة أرصاد وتوقعات الطقس.

لتغيير الخارطة: اضغط على الأزرار الخضراء مع رمز الصليب الأسود للتكبير. على الزر الأخضر مع شرطة للتصغير، أو على الأسهم الخضراء للخرائط المجاورة.


METAR-TAF: